sensor_id;sensor_type;location;lat;lon;timestamp;P1;durP1;ratioP1;P2;durP2;ratioP2
485;SDS011;229;48.734;9.340;2023-01-20T00:02:18;19.33;;;15.63;;
485;SDS011;229;48.734;9.340;2023-01-20T00:04:46;18.35;;;15.07;;
485;SDS011;229;48.734;9.340;2023-01-20T00:07:14;25.85;;;16.33;;
485;SDS011;229;48.734;9.340;2023-01-20T00:09:41;19.88;;;15.45;;
485;SDS011;229;48.734;9.340;2023-01-20T00:12:09;21.88;;;16.60;;
485;SDS011;229;48.734;9.340;2023-01-20T00:14:37;24.30;;;16.80;;
485;SDS011;229;48.734;9.340;2023-01-20T00:17:04;27.10;;;16.83;;
485;SDS011;229;48.734;9.340;2023-01-20T00:19:31;20.25;;;15.45;;
485;SDS011;229;48.734;9.340;2023-01-20T00:21:58;21.23;;;16.48;;
485;SDS011;229;48.734;9.340;2023-01-20T00:24:25;27.58;;;15.85;;
485;SDS011;229;48.734;9.340;2023-01-20T00:26:52;18.33;;;14.80;;
485;SDS011;229;48.734;9.340;2023-01-20T00:29:21;19.27;;;15.32;;
485;SDS011;229;48.734;9.340;2023-01-20T00:31:48;18.92;;;14.95;;
485;SDS011;229;48.734;9.340;2023-01-20T00:34:15;19.13;;;15.00;;
485;SDS011;229;48.734;9.340;2023-01-20T00:36:42;18.85;;;15.52;;
485;SDS011;229;48.734;9.340;2023-01-20T00:39:09;22.63;;;17.05;;
485;SDS011;229;48.734;9.340;2023-01-20T00:41:37;18.23;;;15.40;;
485;SDS011;229;48.734;9.340;2023-01-20T00:44:04;19.67;;;15.23;;
485;SDS011;229;48.734;9.340;2023-01-20T00:46:32;26.23;;;15.80;;
485;SDS011;229;48.734;9.340;2023-01-20T00:49:00;23.55;;;17.30;;
485;SDS011;229;48.734;9.340;2023-01-20T00:51:27;23.65;;;17.25;;
485;SDS011;229;48.734;9.340;2023-01-20T00:53:54;22.42;;;16.55;;
485;SDS011;229;48.734;9.340;2023-01-20T00:56:21;21.75;;;16.73;;
485;SDS011;229;48.734;9.340;2023-01-20T00:58:48;25.52;;;17.75;;
485;SDS011;229;48.734;9.340;2023-01-20T01:01:15;22.90;;;15.65;;
485;SDS011;229;48.734;9.340;2023-01-20T01:03:44;22.52;;;17.65;;
485;SDS011;229;48.734;9.340;2023-01-20T01:06:12;20.27;;;16.33;;
485;SDS011;229;48.734;9.340;2023-01-20T01:08:39;25.13;;;17.70;;
485;SDS011;229;48.734;9.340;2023-01-20T01:11:22;20.92;;;16.42;;
485;SDS011;229;48.734;9.340;2023-01-20T01:13:49;25.05;;;16.02;;
485;SDS011;229;48.734;9.340;2023-01-20T01:16:16;22.55;;;16.55;;
485;SDS011;229;48.734;9.340;2023-01-20T01:18:44;21.88;;;17.20;;
485;SDS011;229;48.734;9.340;2023-01-20T01:21:12;25.20;;;17.85;;
485;SDS011;229;48.734;9.340;2023-01-20T01:23:40;20.05;;;16.10;;
485;SDS011;229;48.734;9.340;2023-01-20T01:26:07;24.40;;;16.85;;
485;SDS011;229;48.734;9.340;2023-01-20T01:28:35;22.67;;;18.13;;
485;SDS011;229;48.734;9.340;2023-01-20T01:31:02;24.88;;;18.80;;
485;SDS011;229;48.734;9.340;2023-01-20T01:33:30;23.40;;;18.00;;
485;SDS011;229;48.734;9.340;2023-01-20T01:35:59;29.23;;;20.42;;
485;SDS011;229;48.734;9.340;2023-01-20T01:38:27;24.27;;;18.42;;
485;SDS011;229;48.734;9.340;2023-01-20T01:40:54;26.38;;;19.05;;
485;SDS011;229;48.734;9.340;2023-01-20T01:43:22;26.17;;;18.08;;
485;SDS011;229;48.734;9.340;2023-01-20T01:45:50;25.67;;;16.88;;
485;SDS011;229;48.734;9.340;2023-01-20T01:48:17;27.10;;;19.08;;
485;SDS011;229;48.734;9.340;2023-01-20T01:50:47;29.05;;;19.92;;
485;SDS011;229;48.734;9.340;2023-01-20T01:53:17;25.40;;;19.02;;
485;SDS011;229;48.734;9.340;2023-01-20T01:55:46;26.10;;;18.40;;
485;SDS011;229;48.734;9.340;2023-01-20T01:58:14;26.20;;;18.85;;
485;SDS011;229;48.734;9.340;2023-01-20T02:00:42;30.63;;;18.75;;
485;SDS011;229;48.734;9.340;2023-01-20T02:03:10;24.92;;;18.48;;
485;SDS011;229;48.734;9.340;2023-01-20T02:05:37;31.88;;;21.30;;
485;SDS011;229;48.734;9.340;2023-01-20T02:08:06;28.40;;;20.27;;
485;SDS011;229;48.734;9.340;2023-01-20T02:10:34;26.60;;;20.08;;
485;SDS011;229;48.734;9.340;2023-01-20T02:13:02;26.63;;;19.98;;
485;SDS011;229;48.734;9.340;2023-01-20T02:15:30;26.77;;;19.73;;
485;SDS011;229;48.734;9.340;2023-01-20T02:18:04;26.83;;;19.30;;
485;SDS011;229;48.734;9.340;2023-01-20T02:23:31;28.40;;;18.98;;
485;SDS011;229;48.734;9.340;2023-01-20T02:26:23;30.27;;;22.05;;
485;SDS011;229;48.734;9.340;2023-01-20T02:32:08;23.85;;;18.92;;
485;SDS011;229;48.734;9.340;2023-01-20T02:34:38;26.77;;;19.55;;
485;SDS011;229;48.734;9.340;2023-01-20T02:37:09;24.63;;;19.33;;
485;SDS011;229;48.734;9.340;2023-01-20T02:39:38;28.95;;;22.88;;
485;SDS011;229;48.734;9.340;2023-01-20T02:42:09;27.25;;;20.73;;
485;SDS011;229;48.734;9.340;2023-01-20T02:44:39;24.80;;;19.38;;
485;SDS011;229;48.734;9.340;2023-01-20T02:47:10;26.25;;;19.30;;
485;SDS011;229;48.734;9.340;2023-01-20T02:49:39;26.52;;;20.38;;
485;SDS011;229;48.734;9.340;2023-01-20T02:52:09;25.13;;;19.40;;
485;SDS011;229;48.734;9.340;2023-01-20T02:54:37;28.65;;;20.95;;
485;SDS011;229;48.734;9.340;2023-01-20T02:57:05;27.00;;;18.67;;
485;SDS011;229;48.734;9.340;2023-01-20T02:59:35;28.88;;;20.63;;
485;SDS011;229;48.734;9.340;2023-01-20T03:02:05;30.33;;;20.77;;
485;SDS011;229;48.734;9.340;2023-01-20T03:04:36;26.05;;;21.67;;
485;SDS011;229;48.734;9.340;2023-01-20T03:07:04;30.00;;;21.10;;
485;SDS011;229;48.734;9.340;2023-01-20T03:09:33;28.90;;;21.90;;
485;SDS011;229;48.734;9.340;2023-01-20T03:12:03;31.38;;;21.67;;
485;SDS011;229;48.734;9.340;2023-01-20T03:14:32;25.50;;;20.48;;
485;SDS011;229;48.734;9.340;2023-01-20T03:17:00;24.58;;;19.50;;
485;SDS011;229;48.734;9.340;2023-01-20T03:19:27;28.42;;;21.13;;
485;SDS011;229;48.734;9.340;2023-01-20T03:21:55;27.70;;;20.85;;
485;SDS011;229;48.734;9.340;2023-01-20T03:24:23;31.38;;;22.73;;
485;SDS011;229;48.734;9.340;2023-01-20T03:26:51;30.70;;;21.77;;
485;SDS011;229;48.734;9.340;2023-01-20T03:29:19;27.05;;;21.00;;
485;SDS011;229;48.734;9.340;2023-01-20T03:31:47;30.05;;;21.77;;
485;SDS011;229;48.734;9.340;2023-01-20T03:34:16;29.35;;;22.35;;
485;SDS011;229;48.734;9.340;2023-01-20T03:36:44;28.90;;;21.80;;
485;SDS011;229;48.734;9.340;2023-01-20T03:39:13;31.48;;;23.17;;
485;SDS011;229;48.734;9.340;2023-01-20T03:41:43;30.40;;;23.65;;
485;SDS011;229;48.734;9.340;2023-01-20T03:44:17;29.98;;;21.92;;
485;SDS011;229;48.734;9.340;2023-01-20T03:46:49;29.25;;;22.90;;
485;SDS011;229;48.734;9.340;2023-01-20T03:49:19;31.35;;;23.60;;
485;SDS011;229;48.734;9.340;2023-01-20T03:51:52;33.70;;;23.35;;
485;SDS011;229;48.734;9.340;2023-01-20T03:54:24;33.40;;;23.15;;
485;SDS011;229;48.734;9.340;2023-01-20T03:56:53;33.33;;;23.20;;
485;SDS011;229;48.734;9.340;2023-01-20T03:59:22;30.30;;;22.45;;
485;SDS011;229;48.734;9.340;2023-01-20T04:01:49;35.40;;;25.77;;
485;SDS011;229;48.734;9.340;2023-01-20T04:04:17;31.85;;;24.30;;
485;SDS011;229;48.734;9.340;2023-01-20T04:06:45;29.40;;;23.70;;
485;SDS011;229;48.734;9.340;2023-01-20T04:09:14;39.13;;;25.95;;
485;SDS011;229;48.734;9.340;2023-01-20T04:11:44;31.42;;;23.38;;
485;SDS011;229;48.734;9.340;2023-01-20T04:14:11;32.40;;;23.02;;
485;SDS011;229;48.734;9.340;2023-01-20T04:16:38;34.88;;;23.30;;
485;SDS011;229;48.734;9.340;2023-01-20T04:19:05;33.17;;;24.15;;
485;SDS011;229;48.734;9.340;2023-01-20T04:21:33;32.95;;;24.02;;
485;SDS011;229;48.734;9.340;2023-01-20T04:24:02;35.30;;;24.10;;
485;SDS011;229;48.734;9.340;2023-01-20T04:26:30;29.67;;;22.27;;
485;SDS011;229;48.734;9.340;2023-01-20T04:28:59;36.70;;;25.30;;
485;SDS011;229;48.734;9.340;2023-01-20T04:31:32;35.67;;;23.13;;
485;SDS011;229;48.734;9.340;2023-01-20T04:33:59;28.42;;;22.25;;
485;SDS011;229;48.734;9.340;2023-01-20T04:36:26;38.40;;;24.60;;
485;SDS011;229;48.734;9.340;2023-01-20T04:38:54;38.60;;;26.10;;
485;SDS011;229;48.734;9.340;2023-01-20T04:41:21;33.33;;;24.52;;
485;SDS011;229;48.734;9.340;2023-01-20T04:43:48;35.40;;;24.15;;
485;SDS011;229;48.734;9.340;2023-01-20T04:46:17;34.20;;;23.70;;
485;SDS011;229;48.734;9.340;2023-01-20T04:48:44;35.78;;;23.75;;
485;SDS011;229;48.734;9.340;2023-01-20T04:51:11;33.47;;;23.85;;
485;SDS011;229;48.734;9.340;2023-01-20T04:53:39;30.52;;;23.23;;
485;SDS011;229;48.734;9.340;2023-01-20T04:56:09;31.45;;;23.60;;
485;SDS011;229;48.734;9.340;2023-01-20T04:58:36;30.85;;;22.63;;
485;SDS011;229;48.734;9.340;2023-01-20T05:01:03;32.72;;;24.52;;
485;SDS011;229;48.734;9.340;2023-01-20T05:03:31;31.55;;;22.83;;
485;SDS011;229;48.734;9.340;2023-01-20T05:05:59;33.60;;;23.98;;
485;SDS011;229;48.734;9.340;2023-01-20T05:08:26;34.55;;;23.38;;
485;SDS011;229;48.734;9.340;2023-01-20T05:10:53;34.88;;;25.05;;
485;SDS011;229;48.734;9.340;2023-01-20T05:13:20;32.60;;;24.85;;
485;SDS011;229;48.734;9.340;2023-01-20T05:15:47;31.40;;;22.33;;
485;SDS011;229;48.734;9.340;2023-01-20T05:18:14;31.33;;;24.55;;
485;SDS011;229;48.734;9.340;2023-01-20T05:20:44;30.33;;;22.45;;
485;SDS011;229;48.734;9.340;2023-01-20T05:23:12;34.05;;;21.65;;
485;SDS011;229;48.734;9.340;2023-01-20T05:25:39;32.45;;;22.20;;
485;SDS011;229;48.734;9.340;2023-01-20T05:28:06;30.67;;;22.45;;
485;SDS011;229;48.734;9.340;2023-01-20T05:30:33;30.38;;;22.50;;
485;SDS011;229;48.734;9.340;2023-01-20T05:33:00;34.60;;;23.67;;
485;SDS011;229;48.734;9.340;2023-01-20T05:35:28;31.90;;;22.30;;
485;SDS011;229;48.734;9.340;2023-01-20T05:37:56;33.95;;;22.52;;
485;SDS011;229;48.734;9.340;2023-01-20T05:40:23;29.70;;;21.70;;
485;SDS011;229;48.734;9.340;2023-01-20T05:42:50;30.92;;;21.27;;
485;SDS011;229;48.734;9.340;2023-01-20T05:45:18;27.65;;;20.98;;
485;SDS011;229;48.734;9.340;2023-01-20T05:47:45;28.77;;;21.33;;
485;SDS011;229;48.734;9.340;2023-01-20T05:50:12;30.52;;;21.35;;
485;SDS011;229;48.734;9.340;2023-01-20T05:52:39;27.70;;;20.60;;
485;SDS011;229;48.734;9.340;2023-01-20T05:55:08;29.05;;;21.98;;
485;SDS011;229;48.734;9.340;2023-01-20T05:57:35;33.10;;;22.65;;
485;SDS011;229;48.734;9.340;2023-01-20T06:00:03;29.10;;;21.25;;
485;SDS011;229;48.734;9.340;2023-01-20T06:02:30;31.63;;;24.17;;
485;SDS011;229;48.734;9.340;2023-01-20T06:04:57;34.40;;;22.65;;
485;SDS011;229;48.734;9.340;2023-01-20T06:07:25;30.77;;;21.55;;
485;SDS011;229;48.734;9.340;2023-01-20T06:09:53;28.92;;;21.65;;
485;SDS011;229;48.734;9.340;2023-01-20T06:12:21;26.70;;;21.15;;
485;SDS011;229;48.734;9.340;2023-01-20T06:14:49;30.08;;;21.38;;
485;SDS011;229;48.734;9.340;2023-01-20T06:17:16;33.33;;;23.00;;
485;SDS011;229;48.734;9.340;2023-01-20T06:19:43;29.73;;;24.10;;
485;SDS011;229;48.734;9.340;2023-01-20T06:22:11;29.13;;;23.10;;
485;SDS011;229;48.734;9.340;2023-01-20T06:24:39;32.38;;;21.17;;
485;SDS011;229;48.734;9.340;2023-01-20T06:27:06;31.40;;;21.88;;
485;SDS011;229;48.734;9.340;2023-01-20T06:29:35;33.35;;;22.15;;
485;SDS011;229;48.734;9.340;2023-01-20T06:32:02;32.42;;;21.95;;
485;SDS011;229;48.734;9.340;2023-01-20T06:34:29;32.60;;;23.90;;
485;SDS011;229;48.734;9.340;2023-01-20T06:36:56;34.50;;;22.08;;
485;SDS011;229;48.734;9.340;2023-01-20T06:39:24;34.10;;;20.95;;
485;SDS011;229;48.734;9.340;2023-01-20T06:41:51;35.47;;;24.50;;
485;SDS011;229;48.734;9.340;2023-01-20T06:44:18;40.88;;;24.67;;
485;SDS011;229;48.734;9.340;2023-01-20T06:46:47;32.83;;;22.75;;
485;SDS011;229;48.734;9.340;2023-01-20T06:49:14;31.30;;;22.90;;
485;SDS011;229;48.734;9.340;2023-01-20T06:51:41;29.50;;;22.63;;
485;SDS011;229;48.734;9.340;2023-01-20T06:54:08;32.97;;;22.88;;
485;SDS011;229;48.734;9.340;2023-01-20T06:56:35;33.80;;;23.10;;
485;SDS011;229;48.734;9.340;2023-01-20T06:59:03;30.20;;;22.70;;
485;SDS011;229;48.734;9.340;2023-01-20T07:01:30;38.55;;;23.75;;
485;SDS011;229;48.734;9.340;2023-01-20T07:03:58;34.22;;;23.95;;
485;SDS011;229;48.734;9.340;2023-01-20T07:06:26;31.83;;;22.55;;
485;SDS011;229;48.734;9.340;2023-01-20T07:08:54;33.22;;;22.90;;
485;SDS011;229;48.734;9.340;2023-01-20T07:11:21;29.52;;;22.10;;
485;SDS011;229;48.734;9.340;2023-01-20T07:13:48;30.75;;;22.10;;
485;SDS011;229;48.734;9.340;2023-01-20T07:16:16;40.30;;;23.92;;
485;SDS011;229;48.734;9.340;2023-01-20T07:18:45;32.53;;;22.58;;
485;SDS011;229;48.734;9.340;2023-01-20T07:21:14;28.60;;;21.83;;
485;SDS011;229;48.734;9.340;2023-01-20T07:23:41;31.00;;;22.10;;
485;SDS011;229;48.734;9.340;2023-01-20T07:26:09;27.80;;;21.80;;
485;SDS011;229;48.734;9.340;2023-01-20T07:28:37;37.13;;;24.92;;
485;SDS011;229;48.734;9.340;2023-01-20T07:31:04;38.20;;;26.23;;
485;SDS011;229;48.734;9.340;2023-01-20T07:33:32;38.65;;;29.27;;
485;SDS011;229;48.734;9.340;2023-01-20T07:35:59;42.38;;;28.55;;
485;SDS011;229;48.734;9.340;2023-01-20T07:38:28;42.15;;;27.55;;
485;SDS011;229;48.734;9.340;2023-01-20T07:40:56;41.13;;;30.10;;
485;SDS011;229;48.734;9.340;2023-01-20T07:43:23;73.22;;;43.50;;
485;SDS011;229;48.734;9.340;2023-01-20T07:45:53;57.45;;;39.65;;
485;SDS011;229;48.734;9.340;2023-01-20T07:48:20;44.42;;;29.48;;
485;SDS011;229;48.734;9.340;2023-01-20T07:50:47;29.75;;;23.30;;
485;SDS011;229;48.734;9.340;2023-01-20T07:53:14;36.58;;;24.48;;
485;SDS011;229;48.734;9.340;2023-01-20T07:55:43;32.05;;;22.92;;
485;SDS011;229;48.734;9.340;2023-01-20T07:58:10;36.22;;;24.08;;
485;SDS011;229;48.734;9.340;2023-01-20T08:00:37;33.25;;;24.38;;
485;SDS011;229;48.734;9.340;2023-01-20T08:03:05;45.22;;;26.48;;
485;SDS011;229;48.734;9.340;2023-01-20T08:05:32;33.92;;;24.52;;
485;SDS011;229;48.734;9.340;2023-01-20T08:07:59;32.30;;;24.05;;
485;SDS011;229;48.734;9.340;2023-01-20T08:10:26;32.15;;;23.60;;
485;SDS011;229;48.734;9.340;2023-01-20T08:12:55;37.40;;;24.23;;
485;SDS011;229;48.734;9.340;2023-01-20T08:15:22;31.02;;;23.83;;
485;SDS011;229;48.734;9.340;2023-01-20T08:17:51;33.15;;;24.52;;
485;SDS011;229;48.734;9.340;2023-01-20T08:20:19;30.92;;;24.80;;
485;SDS011;229;48.734;9.340;2023-01-20T08:22:46;33.67;;;24.70;;
485;SDS011;229;48.734;9.340;2023-01-20T08:25:13;33.72;;;24.90;;
485;SDS011;229;48.734;9.340;2023-01-20T08:27:40;33.47;;;24.65;;
485;SDS011;229;48.734;9.340;2023-01-20T08:30:09;32.25;;;24.23;;
485;SDS011;229;48.734;9.340;2023-01-20T08:32:37;33.63;;;24.60;;
485;SDS011;229;48.734;9.340;2023-01-20T08:35:04;32.20;;;24.38;;
485;SDS011;229;48.734;9.340;2023-01-20T08:37:34;32.88;;;25.23;;
485;SDS011;229;48.734;9.340;2023-01-20T08:40:01;35.83;;;23.70;;
485;SDS011;229;48.734;9.340;2023-01-20T08:42:28;31.92;;;23.75;;
485;SDS011;229;48.734;9.340;2023-01-20T08:44:55;35.58;;;24.30;;
485;SDS011;229;48.734;9.340;2023-01-20T08:47:24;42.60;;;25.02;;
485;SDS011;229;48.734;9.340;2023-01-20T08:49:51;31.90;;;23.77;;
485;SDS011;229;48.734;9.340;2023-01-20T08:52:18;29.30;;;23.27;;
485;SDS011;229;48.734;9.340;2023-01-20T08:54:46;32.13;;;23.20;;
485;SDS011;229;48.734;9.340;2023-01-20T08:57:13;26.70;;;22.25;;
485;SDS011;229;48.734;9.340;2023-01-20T08:59:40;27.98;;;22.80;;
485;SDS011;229;48.734;9.340;2023-01-20T09:02:08;29.73;;;22.35;;
485;SDS011;229;48.734;9.340;2023-01-20T09:04:36;27.90;;;22.52;;
485;SDS011;229;48.734;9.340;2023-01-20T09:07:04;30.20;;;22.85;;
485;SDS011;229;48.734;9.340;2023-01-20T09:09:31;25.92;;;22.05;;
485;SDS011;229;48.734;9.340;2023-01-20T09:11:59;34.70;;;22.30;;
485;SDS011;229;48.734;9.340;2023-01-20T09:14:26;28.00;;;21.95;;
485;SDS011;229;48.734;9.340;2023-01-20T09:16:53;33.55;;;23.10;;
485;SDS011;229;48.734;9.340;2023-01-20T09:19:20;27.50;;;21.20;;
485;SDS011;229;48.734;9.340;2023-01-20T09:21:49;33.40;;;23.20;;
485;SDS011;229;48.734;9.340;2023-01-20T09:24:16;26.63;;;21.50;;
485;SDS011;229;48.734;9.340;2023-01-20T09:26:43;29.50;;;22.20;;
485;SDS011;229;48.734;9.340;2023-01-20T09:29:11;27.92;;;20.65;;
485;SDS011;229;48.734;9.340;2023-01-20T09:31:39;29.70;;;22.73;;
485;SDS011;229;48.734;9.340;2023-01-20T09:34:08;24.85;;;21.52;;
485;SDS011;229;48.734;9.340;2023-01-20T09:36:36;27.02;;;22.33;;
485;SDS011;229;48.734;9.340;2023-01-20T09:39:04;26.50;;;20.40;;
485;SDS011;229;48.734;9.340;2023-01-20T09:41:49;30.80;;;21.90;;
485;SDS011;229;48.734;9.340;2023-01-20T09:44:41;27.58;;;21.25;;
485;SDS011;229;48.734;9.340;2023-01-20T09:47:13;29.75;;;22.00;;
485;SDS011;229;48.734;9.340;2023-01-20T09:49:47;30.92;;;22.02;;
485;SDS011;229;48.734;9.340;2023-01-20T09:52:35;23.35;;;18.95;;
485;SDS011;229;48.734;9.340;2023-01-20T09:55:22;29.30;;;20.30;;
485;SDS011;229;48.734;9.340;2023-01-20T09:57:53;24.45;;;19.55;;
485;SDS011;229;48.734;9.340;2023-01-20T10:00:25;25.73;;;19.58;;
485;SDS011;229;48.734;9.340;2023-01-20T10:02:54;26.42;;;20.30;;
485;SDS011;229;48.734;9.340;2023-01-20T10:05:24;26.40;;;20.02;;
485;SDS011;229;48.734;9.340;2023-01-20T10:07:57;27.05;;;18.92;;
485;SDS011;229;48.734;9.340;2023-01-20T10:10:28;29.98;;;21.15;;
485;SDS011;229;48.734;9.340;2023-01-20T10:13:00;23.92;;;19.63;;
485;SDS011;229;48.734;9.340;2023-01-20T10:15:29;28.17;;;19.88;;
485;SDS011;229;48.734;9.340;2023-01-20T10:17:57;25.42;;;20.23;;
485;SDS011;229;48.734;9.340;2023-01-20T10:20:27;24.02;;;18.85;;
485;SDS011;229;48.734;9.340;2023-01-20T10:22:57;25.63;;;20.60;;
485;SDS011;229;48.734;9.340;2023-01-20T10:25:29;22.38;;;18.90;;
485;SDS011;229;48.734;9.340;2023-01-20T10:27:57;27.08;;;21.08;;
485;SDS011;229;48.734;9.340;2023-01-20T10:30:29;26.25;;;20.63;;
485;SDS011;229;48.734;9.340;2023-01-20T10:32:57;30.35;;;20.52;;
485;SDS011;229;48.734;9.340;2023-01-20T10:35:27;31.63;;;21.80;;
485;SDS011;229;48.734;9.340;2023-01-20T10:37:54;31.35;;;24.50;;
485;SDS011;229;48.734;9.340;2023-01-20T10:40:29;28.00;;;20.02;;
485;SDS011;229;48.734;9.340;2023-01-20T10:42:58;24.60;;;18.83;;
485;SDS011;229;48.734;9.340;2023-01-20T10:45:26;57.88;;;41.47;;
485;SDS011;229;48.734;9.340;2023-01-20T10:47:57;61.95;;;43.30;;
485;SDS011;229;48.734;9.340;2023-01-20T10:50:32;91.35;;;57.58;;
485;SDS011;229;48.734;9.340;2023-01-20T10:53:07;22.20;;;16.70;;
485;SDS011;229;48.734;9.340;2023-01-20T10:55:40;19.27;;;15.50;;
485;SDS011;229;48.734;9.340;2023-01-20T10:58:13;26.63;;;18.02;;
485;SDS011;229;48.734;9.340;2023-01-20T11:00:42;21.83;;;17.30;;
485;SDS011;229;48.734;9.340;2023-01-20T11:03:11;25.83;;;21.30;;
485;SDS011;229;48.734;9.340;2023-01-20T11:05:40;28.60;;;21.52;;
485;SDS011;229;48.734;9.340;2023-01-20T11:08:09;25.30;;;16.70;;
485;SDS011;229;48.734;9.340;2023-01-20T11:10:42;24.90;;;19.10;;
485;SDS011;229;48.734;9.340;2023-01-20T11:13:09;18.50;;;14.80;;
485;SDS011;229;48.734;9.340;2023-01-20T11:15:37;19.75;;;15.10;;
485;SDS011;229;48.734;9.340;2023-01-20T11:18:20;18.80;;;14.95;;
485;SDS011;229;48.734;9.340;2023-01-20T11:20:48;17.15;;;12.68;;
485;SDS011;229;48.734;9.340;2023-01-20T11:23:18;20.45;;;14.80;;
485;SDS011;229;48.734;9.340;2023-01-20T11:25:53;17.05;;;13.88;;
485;SDS011;229;48.734;9.340;2023-01-20T11:28:20;20.63;;;14.27;;
485;SDS011;229;48.734;9.340;2023-01-20T11:30:53;19.05;;;13.45;;
485;SDS011;229;48.734;9.340;2023-01-20T11:33:21;19.52;;;13.60;;
485;SDS011;229;48.734;9.340;2023-01-20T11:35:55;19.25;;;13.50;;
485;SDS011;229;48.734;9.340;2023-01-20T11:38:24;20.83;;;14.50;;
485;SDS011;229;48.734;9.340;2023-01-20T11:40:53;19.48;;;14.27;;
485;SDS011;229;48.734;9.340;2023-01-20T11:43:28;23.55;;;12.82;;
485;SDS011;229;48.734;9.340;2023-01-20T11:46:11;16.95;;;12.65;;
485;SDS011;229;48.734;9.340;2023-01-20T11:48:40;16.90;;;11.63;;
485;SDS011;229;48.734;9.340;2023-01-20T11:51:15;16.98;;;13.20;;
485;SDS011;229;48.734;9.340;2023-01-20T11:53:44;16.20;;;12.77;;
485;SDS011;229;48.734;9.340;2023-01-20T11:56:15;18.23;;;14.45;;
485;SDS011;229;48.734;9.340;2023-01-20T11:58:51;18.00;;;12.68;;
485;SDS011;229;48.734;9.340;2023-01-20T12:01:23;15.20;;;12.18;;
485;SDS011;229;48.734;9.340;2023-01-20T12:06:41;17.13;;;13.45;;
485;SDS011;229;48.734;9.340;2023-01-20T12:09:12;14.73;;;11.90;;
485;SDS011;229;48.734;9.340;2023-01-20T12:11:44;16.33;;;12.63;;
485;SDS011;229;48.734;9.340;2023-01-20T12:14:17;17.42;;;13.52;;
485;SDS011;229;48.734;9.340;2023-01-20T12:16:47;16.85;;;13.38;;
485;SDS011;229;48.734;9.340;2023-01-20T12:19:17;16.83;;;13.77;;
485;SDS011;229;48.734;9.340;2023-01-20T12:21:47;15.55;;;12.43;;
485;SDS011;229;48.734;9.340;2023-01-20T12:24:17;19.65;;;12.55;;
485;SDS011;229;48.734;9.340;2023-01-20T12:26:47;15.07;;;12.40;;
485;SDS011;229;48.734;9.340;2023-01-20T12:29:17;14.90;;;10.93;;
485;SDS011;229;48.734;9.340;2023-01-20T12:31:45;12.05;;;10.40;;
485;SDS011;229;48.734;9.340;2023-01-20T12:34:13;11.85;;;9.60;;
485;SDS011;229;48.734;9.340;2023-01-20T12:36:54;31.15;;;9.85;;
485;SDS011;229;48.734;9.340;2023-01-20T12:39:27;11.70;;;9.02;;
485;SDS011;229;48.734;9.340;2023-01-20T12:42:04;11.45;;;8.95;;
485;SDS011;229;48.734;9.340;2023-01-20T12:44:37;21.63;;;10.18;;
485;SDS011;229;48.734;9.340;2023-01-20T12:47:10;14.77;;;9.93;;
485;SDS011;229;48.734;9.340;2023-01-20T12:49:47;21.05;;;9.93;;
485;SDS011;229;48.734;9.340;2023-01-20T12:52:24;12.90;;;8.68;;
485;SDS011;229;48.734;9.340;2023-01-20T12:54:56;24.30;;;7.18;;
485;SDS011;229;48.734;9.340;2023-01-20T12:57:31;22.13;;;9.50;;
485;SDS011;229;48.734;9.340;2023-01-20T13:00:09;17.17;;;9.38;;
485;SDS011;229;48.734;9.340;2023-01-20T13:02:49;9.90;;;7.70;;
485;SDS011;229;48.734;9.340;2023-01-20T13:05:24;11.20;;;8.75;;
485;SDS011;229;48.734;9.340;2023-01-20T13:07:58;11.13;;;8.70;;
485;SDS011;229;48.734;9.340;2023-01-20T13:10:36;10.00;;;8.70;;
485;SDS011;229;48.734;9.340;2023-01-20T13:13:08;12.95;;;9.25;;
485;SDS011;229;48.734;9.340;2023-01-20T13:15:37;11.52;;;8.25;;
485;SDS011;229;48.734;9.340;2023-01-20T13:18:13;11.73;;;9.52;;
485;SDS011;229;48.734;9.340;2023-01-20T13:20:45;23.63;;;9.18;;
485;SDS011;229;48.734;9.340;2023-01-20T13:23:14;11.10;;;9.40;;
485;SDS011;229;48.734;9.340;2023-01-20T13:25:41;11.60;;;8.75;;
485;SDS011;229;48.734;9.340;2023-01-20T13:28:14;11.45;;;8.90;;
485;SDS011;229;48.734;9.340;2023-01-20T13:30:43;13.40;;;9.27;;
485;SDS011;229;48.734;9.340;2023-01-20T13:33:16;13.48;;;10.15;;
485;SDS011;229;48.734;9.340;2023-01-20T13:35:46;12.23;;;9.00;;
485;SDS011;229;48.734;9.340;2023-01-20T13:38:18;11.70;;;7.13;;
485;SDS011;229;48.734;9.340;2023-01-20T13:40:47;12.30;;;9.00;;
485;SDS011;229;48.734;9.340;2023-01-20T13:43:35;14.13;;;8.85;;
485;SDS011;229;48.734;9.340;2023-01-20T13:51:43;9.57;;;7.13;;
485;SDS011;229;48.734;9.340;2023-01-20T13:59:42;12.98;;;8.27;;
485;SDS011;229;48.734;9.340;2023-01-20T14:02:14;11.23;;;7.50;;
485;SDS011;229;48.734;9.340;2023-01-20T14:04:43;9.23;;;6.75;;
485;SDS011;229;48.734;9.340;2023-01-20T14:07:20;7.72;;;5.80;;
485;SDS011;229;48.734;9.340;2023-01-20T14:09:51;6.65;;;5.80;;
485;SDS011;229;48.734;9.340;2023-01-20T14:12:18;7.55;;;5.93;;
485;SDS011;229;48.734;9.340;2023-01-20T14:14:47;17.65;;;6.95;;
485;SDS011;229;48.734;9.340;2023-01-20T14:17:16;10.50;;;6.70;;
485;SDS011;229;48.734;9.340;2023-01-20T14:19:45;16.73;;;7.30;;
485;SDS011;229;48.734;9.340;2023-01-20T14:22:17;9.07;;;5.78;;
485;SDS011;229;48.734;9.340;2023-01-20T14:24:44;11.38;;;5.88;;
485;SDS011;229;48.734;9.340;2023-01-20T14:27:14;7.30;;;5.05;;
485;SDS011;229;48.734;9.340;2023-01-20T14:29:43;6.65;;;4.90;;
485;SDS011;229;48.734;9.340;2023-01-20T14:32:19;10.07;;;6.00;;
485;SDS011;229;48.734;9.340;2023-01-20T14:34:47;8.35;;;6.40;;
485;SDS011;229;48.734;9.340;2023-01-20T14:37:21;9.38;;;6.60;;
485;SDS011;229;48.734;9.340;2023-01-20T14:39:49;11.90;;;7.22;;
485;SDS011;229;48.734;9.340;2023-01-20T14:42:17;8.93;;;8.25;;
485;SDS011;229;48.734;9.340;2023-01-20T14:44:45;10.38;;;8.55;;
485;SDS011;229;48.734;9.340;2023-01-20T14:47:13;10.77;;;8.35;;
485;SDS011;229;48.734;9.340;2023-01-20T14:49:41;10.00;;;8.18;;
485;SDS011;229;48.734;9.340;2023-01-20T14:52:10;12.18;;;7.55;;
485;SDS011;229;48.734;9.340;2023-01-20T14:54:41;14.10;;;9.60;;
485;SDS011;229;48.734;9.340;2023-01-20T14:57:19;10.23;;;9.10;;
485;SDS011;229;48.734;9.340;2023-01-20T14:59:46;14.40;;;10.20;;
485;SDS011;229;48.734;9.340;2023-01-20T15:02:16;18.17;;;10.05;;
485;SDS011;229;48.734;9.340;2023-01-20T15:04:45;10.90;;;9.20;;
485;SDS011;229;48.734;9.340;2023-01-20T15:07:15;17.15;;;8.82;;
485;SDS011;229;48.734;9.340;2023-01-20T15:09:48;13.98;;;10.48;;
485;SDS011;229;48.734;9.340;2023-01-20T15:12:33;10.75;;;8.13;;
485;SDS011;229;48.734;9.340;2023-01-20T15:15:09;9.35;;;8.77;;
485;SDS011;229;48.734;9.340;2023-01-20T15:17:40;17.48;;;9.07;;
485;SDS011;229;48.734;9.340;2023-01-20T15:22:51;22.60;;;8.32;;
485;SDS011;229;48.734;9.340;2023-01-20T15:25:18;12.38;;;8.95;;
485;SDS011;229;48.734;9.340;2023-01-20T15:27:50;18.10;;;8.27;;
485;SDS011;229;48.734;9.340;2023-01-20T15:30:18;20.80;;;9.02;;
485;SDS011;229;48.734;9.340;2023-01-20T15:32:48;18.13;;;10.60;;
485;SDS011;229;48.734;9.340;2023-01-20T15:35:16;11.45;;;8.07;;
485;SDS011;229;48.734;9.340;2023-01-20T15:37:45;11.35;;;8.43;;
485;SDS011;229;48.734;9.340;2023-01-20T15:40:15;8.80;;;6.88;;
485;SDS011;229;48.734;9.340;2023-01-20T15:42:42;11.13;;;7.50;;
485;SDS011;229;48.734;9.340;2023-01-20T15:45:11;10.35;;;7.53;;
485;SDS011;229;48.734;9.340;2023-01-20T15:47:39;11.63;;;8.25;;
485;SDS011;229;48.734;9.340;2023-01-20T15:50:11;12.18;;;9.02;;
485;SDS011;229;48.734;9.340;2023-01-20T15:52:38;11.68;;;8.32;;
485;SDS011;229;48.734;9.340;2023-01-20T15:55:06;10.88;;;8.90;;
485;SDS011;229;48.734;9.340;2023-01-20T15:57:35;11.25;;;8.80;;